sensor_id;sensor_type;location;lat;lon;timestamp;P1;durP1;ratioP1;P2;durP2;ratioP2
72603;SDS011;60645;56.968;24.196;2023-02-28T00:01:30;5.28;;;0.80;;
72603;SDS011;60645;56.968;24.196;2023-02-28T00:03:57;3.03;;;0.75;;
72603;SDS011;60645;56.968;24.196;2023-02-28T00:06:24;4.07;;;1.00;;
72603;SDS011;60645;56.968;24.196;2023-02-28T00:08:52;4.10;;;1.02;;
72603;SDS011;60645;56.968;24.196;2023-02-28T00:11:19;2.90;;;1.02;;
72603;SDS011;60645;56.968;24.196;2023-02-28T00:13:46;2.90;;;1.02;;
72603;SDS011;60645;56.968;24.196;2023-02-28T00:16:18;2.42;;;0.85;;
72603;SDS011;60645;56.968;24.196;2023-02-28T00:18:47;4.32;;;0.98;;
72603;SDS011;60645;56.968;24.196;2023-02-28T00:21:14;2.00;;;0.65;;
72603;SDS011;60645;56.968;24.196;2023-02-28T00:23:42;2.83;;;0.88;;
72603;SDS011;60645;56.968;24.196;2023-02-28T00:26:10;3.15;;;0.95;;
72603;SDS011;60645;56.968;24.196;2023-02-28T00:28:37;3.13;;;0.85;;
72603;SDS011;60645;56.968;24.196;2023-02-28T00:31:04;3.20;;;0.80;;
72603;SDS011;60645;56.968;24.196;2023-02-28T00:33:31;2.03;;;0.52;;
72603;SDS011;60645;56.968;24.196;2023-02-28T00:36:08;3.35;;;0.60;;
72603;SDS011;60645;56.968;24.196;2023-02-28T00:38:37;2.25;;;0.63;;
72603;SDS011;60645;56.968;24.196;2023-02-28T00:41:05;3.33;;;1.17;;
72603;SDS011;60645;56.968;24.196;2023-02-28T00:43:34;4.45;;;1.08;;
72603;SDS011;60645;56.968;24.196;2023-02-28T00:46:02;3.90;;;0.95;;
72603;SDS011;60645;56.968;24.196;2023-02-28T00:48:30;2.28;;;0.90;;
72603;SDS011;60645;56.968;24.196;2023-02-28T00:50:57;3.10;;;0.57;;
72603;SDS011;60645;56.968;24.196;2023-02-28T00:53:24;2.60;;;0.85;;
72603;SDS011;60645;56.968;24.196;2023-02-28T00:55:51;1.85;;;0.73;;
72603;SDS011;60645;56.968;24.196;2023-02-28T00:58:18;1.70;;;0.60;;
72603;SDS011;60645;56.968;24.196;2023-02-28T01:00:45;2.83;;;0.75;;
72603;SDS011;60645;56.968;24.196;2023-02-28T01:03:16;3.65;;;0.90;;
72603;SDS011;60645;56.968;24.196;2023-02-28T01:05:44;3.63;;;0.50;;
72603;SDS011;60645;56.968;24.196;2023-02-28T01:08:12;2.60;;;1.10;;
72603;SDS011;60645;56.968;24.196;2023-02-28T01:10:40;2.45;;;0.65;;
72603;SDS011;60645;56.968;24.196;2023-02-28T01:13:07;3.20;;;0.60;;
72603;SDS011;60645;56.968;24.196;2023-02-28T01:15:34;3.53;;;1.20;;
72603;SDS011;60645;56.968;24.196;2023-02-28T01:18:01;5.95;;;0.77;;
72603;SDS011;60645;56.968;24.196;2023-02-28T01:20:28;1.92;;;0.60;;
72603;SDS011;60645;56.968;24.196;2023-02-28T01:22:56;2.28;;;0.60;;
72603;SDS011;60645;56.968;24.196;2023-02-28T01:25:23;1.95;;;0.70;;
72603;SDS011;60645;56.968;24.196;2023-02-28T01:27:50;3.53;;;0.88;;
72603;SDS011;60645;56.968;24.196;2023-02-28T01:30:18;3.72;;;0.65;;
72603;SDS011;60645;56.968;24.196;2023-02-28T01:32:45;1.80;;;0.60;;
72603;SDS011;60645;56.968;24.196;2023-02-28T01:35:12;2.03;;;0.57;;
72603;SDS011;60645;56.968;24.196;2023-02-28T01:37:39;4.47;;;1.17;;
72603;SDS011;60645;56.968;24.196;2023-02-28T01:40:06;3.20;;;1.17;;
72603;SDS011;60645;56.968;24.196;2023-02-28T01:42:34;4.32;;;1.20;;
72603;SDS011;60645;56.968;24.196;2023-02-28T01:47:56;2.58;;;0.93;;
72603;SDS011;60645;56.968;24.196;2023-02-28T01:50:32;2.67;;;0.65;;
72603;SDS011;60645;56.968;24.196;2023-02-28T01:53:04;3.42;;;0.95;;
72603;SDS011;60645;56.968;24.196;2023-02-28T01:55:33;2.53;;;0.75;;
72603;SDS011;60645;56.968;24.196;2023-02-28T01:58:01;2.60;;;0.80;;
72603;SDS011;60645;56.968;24.196;2023-02-28T02:00:31;3.08;;;0.55;;
72603;SDS011;60645;56.968;24.196;2023-02-28T02:02:58;2.70;;;0.63;;
72603;SDS011;60645;56.968;24.196;2023-02-28T02:05:28;2.78;;;1.27;;
72603;SDS011;60645;56.968;24.196;2023-02-28T02:08:04;2.85;;;0.70;;
72603;SDS011;60645;56.968;24.196;2023-02-28T02:10:41;2.10;;;0.70;;
72603;SDS011;60645;56.968;24.196;2023-02-28T02:16:08;2.47;;;0.63;;
72603;SDS011;60645;56.968;24.196;2023-02-28T02:25:19;3.30;;;0.70;;
72603;SDS011;60645;56.968;24.196;2023-02-28T02:39:04;2.40;;;0.63;;
72603;SDS011;60645;56.968;24.196;2023-02-28T02:41:40;2.70;;;0.43;;
72603;SDS011;60645;56.968;24.196;2023-02-28T02:46:50;3.10;;;0.40;;
72603;SDS011;60645;56.968;24.196;2023-02-28T02:49:21;3.95;;;0.70;;
72603;SDS011;60645;56.968;24.196;2023-02-28T02:51:52;1.38;;;0.22;;
72603;SDS011;60645;56.968;24.196;2023-02-28T02:54:29;1.73;;;0.32;;
72603;SDS011;60645;56.968;24.196;2023-02-28T02:57:01;3.15;;;0.82;;
72603;SDS011;60645;56.968;24.196;2023-02-28T02:59:32;2.47;;;0.38;;
72603;SDS011;60645;56.968;24.196;2023-02-28T03:02:02;0.95;;;0.38;;
72603;SDS011;60645;56.968;24.196;2023-02-28T03:04:34;2.35;;;0.40;;
72603;SDS011;60645;56.968;24.196;2023-02-28T03:07:06;0.85;;;0.43;;
72603;SDS011;60645;56.968;24.196;2023-02-28T03:09:33;1.27;;;0.52;;
72603;SDS011;60645;56.968;24.196;2023-02-28T03:12:01;1.98;;;0.63;;
72603;SDS011;60645;56.968;24.196;2023-02-28T03:14:45;2.95;;;0.40;;
72603;SDS011;60645;56.968;24.196;2023-02-28T03:17:47;1.45;;;0.38;;
72603;SDS011;60645;56.968;24.196;2023-02-28T03:20:37;1.38;;;0.38;;
72603;SDS011;60645;56.968;24.196;2023-02-28T03:23:23;2.42;;;0.43;;
72603;SDS011;60645;56.968;24.196;2023-02-28T03:26:24;2.13;;;0.40;;
72603;SDS011;60645;56.968;24.196;2023-02-28T03:28:55;2.03;;;0.32;;
72603;SDS011;60645;56.968;24.196;2023-02-28T03:34:22;0.88;;;0.22;;
72603;SDS011;60645;56.968;24.196;2023-02-28T03:37:04;1.13;;;0.32;;
72603;SDS011;60645;56.968;24.196;2023-02-28T03:39:37;2.35;;;0.88;;
72603;SDS011;60645;56.968;24.196;2023-02-28T03:42:15;2.80;;;0.30;;
72603;SDS011;60645;56.968;24.196;2023-02-28T03:44:49;1.77;;;0.30;;
72603;SDS011;60645;56.968;24.196;2023-02-28T03:50:01;1.00;;;0.40;;
72603;SDS011;60645;56.968;24.196;2023-02-28T03:52:38;1.75;;;0.40;;
72603;SDS011;60645;56.968;24.196;2023-02-28T03:55:13;1.13;;;0.43;;
72603;SDS011;60645;56.968;24.196;2023-02-28T04:00:31;0.95;;;0.32;;
72603;SDS011;60645;56.968;24.196;2023-02-28T04:03:03;3.15;;;0.60;;
72603;SDS011;60645;56.968;24.196;2023-02-28T04:05:31;1.60;;;0.52;;
72603;SDS011;60645;56.968;24.196;2023-02-28T04:08:06;2.67;;;0.45;;
72603;SDS011;60645;56.968;24.196;2023-02-28T04:10:33;1.80;;;0.40;;
72603;SDS011;60645;56.968;24.196;2023-02-28T04:13:00;1.48;;;0.52;;
72603;SDS011;60645;56.968;24.196;2023-02-28T04:15:27;1.30;;;0.38;;
72603;SDS011;60645;56.968;24.196;2023-02-28T04:17:54;1.30;;;0.30;;
72603;SDS011;60645;56.968;24.196;2023-02-28T04:20:21;2.30;;;0.30;;
72603;SDS011;60645;56.968;24.196;2023-02-28T04:22:48;2.80;;;0.50;;
72603;SDS011;60645;56.968;24.196;2023-02-28T04:25:15;1.63;;;0.22;;
72603;SDS011;60645;56.968;24.196;2023-02-28T04:27:42;1.52;;;0.43;;
72603;SDS011;60645;56.968;24.196;2023-02-28T04:30:11;2.85;;;0.80;;
72603;SDS011;60645;56.968;24.196;2023-02-28T04:32:38;1.25;;;0.55;;
72603;SDS011;60645;56.968;24.196;2023-02-28T04:35:06;2.35;;;0.22;;
72603;SDS011;60645;56.968;24.196;2023-02-28T04:37:33;1.63;;;0.30;;
72603;SDS011;60645;56.968;24.196;2023-02-28T04:40:01;1.17;;;0.40;;
72603;SDS011;60645;56.968;24.196;2023-02-28T04:42:29;5.00;;;0.82;;
72603;SDS011;60645;56.968;24.196;2023-02-28T04:45:02;1.27;;;0.70;;
72603;SDS011;60645;56.968;24.196;2023-02-28T04:47:30;3.38;;;0.38;;
72603;SDS011;60645;56.968;24.196;2023-02-28T04:49:57;3.90;;;0.45;;
72603;SDS011;60645;56.968;24.196;2023-02-28T04:52:24;3.88;;;0.75;;
72603;SDS011;60645;56.968;24.196;2023-02-28T04:54:53;2.42;;;0.73;;
72603;SDS011;60645;56.968;24.196;2023-02-28T04:57:21;3.45;;;0.93;;
72603;SDS011;60645;56.968;24.196;2023-02-28T04:59:48;2.65;;;1.02;;
72603;SDS011;60645;56.968;24.196;2023-02-28T05:02:14;3.88;;;0.82;;
72603;SDS011;60645;56.968;24.196;2023-02-28T05:04:42;2.13;;;0.60;;
72603;SDS011;60645;56.968;24.196;2023-02-28T05:07:09;1.83;;;0.65;;
72603;SDS011;60645;56.968;24.196;2023-02-28T05:09:36;2.70;;;0.45;;
72603;SDS011;60645;56.968;24.196;2023-02-28T05:12:03;4.28;;;1.10;;
72603;SDS011;60645;56.968;24.196;2023-02-28T05:14:30;2.35;;;0.77;;
72603;SDS011;60645;56.968;24.196;2023-02-28T05:16:57;2.78;;;0.57;;
72603;SDS011;60645;56.968;24.196;2023-02-28T05:19:24;2.45;;;0.70;;
72603;SDS011;60645;56.968;24.196;2023-02-28T05:21:51;2.15;;;0.98;;
72603;SDS011;60645;56.968;24.196;2023-02-28T05:24:20;4.88;;;0.95;;
72603;SDS011;60645;56.968;24.196;2023-02-28T05:26:50;2.20;;;0.50;;
72603;SDS011;60645;56.968;24.196;2023-02-28T05:29:19;4.20;;;1.13;;
72603;SDS011;60645;56.968;24.196;2023-02-28T05:31:46;2.35;;;1.02;;
72603;SDS011;60645;56.968;24.196;2023-02-28T05:34:13;2.60;;;0.80;;
72603;SDS011;60645;56.968;24.196;2023-02-28T05:36:42;3.50;;;0.77;;
72603;SDS011;60645;56.968;24.196;2023-02-28T05:39:09;2.03;;;0.65;;
72603;SDS011;60645;56.968;24.196;2023-02-28T05:41:40;4.65;;;1.20;;
72603;SDS011;60645;56.968;24.196;2023-02-28T05:44:07;4.78;;;1.00;;
72603;SDS011;60645;56.968;24.196;2023-02-28T05:46:34;2.78;;;0.80;;
72603;SDS011;60645;56.968;24.196;2023-02-28T05:49:03;2.50;;;0.68;;
72603;SDS011;60645;56.968;24.196;2023-02-28T05:51:30;2.22;;;0.77;;
72603;SDS011;60645;56.968;24.196;2023-02-28T05:53:58;4.30;;;1.10;;
72603;SDS011;60645;56.968;24.196;2023-02-28T05:56:27;1.92;;;0.85;;
72603;SDS011;60645;56.968;24.196;2023-02-28T05:58:56;3.88;;;1.10;;
72603;SDS011;60645;56.968;24.196;2023-02-28T06:01:36;3.85;;;1.02;;
72603;SDS011;60645;56.968;24.196;2023-02-28T06:04:08;3.55;;;1.00;;
72603;SDS011;60645;56.968;24.196;2023-02-28T06:06:54;2.70;;;1.00;;
72603;SDS011;60645;56.968;24.196;2023-02-28T06:09:23;2.70;;;0.80;;
72603;SDS011;60645;56.968;24.196;2023-02-28T06:11:51;4.68;;;1.48;;
72603;SDS011;60645;56.968;24.196;2023-02-28T06:14:18;3.47;;;0.90;;
72603;SDS011;60645;56.968;24.196;2023-02-28T06:16:46;4.35;;;1.02;;
72603;SDS011;60645;56.968;24.196;2023-02-28T06:19:14;1.60;;;0.70;;
72603;SDS011;60645;56.968;24.196;2023-02-28T06:21:41;2.65;;;0.93;;
72603;SDS011;60645;56.968;24.196;2023-02-28T06:24:08;1.65;;;1.10;;
72603;SDS011;60645;56.968;24.196;2023-02-28T06:26:35;2.50;;;0.70;;
72603;SDS011;60645;56.968;24.196;2023-02-28T06:29:02;2.42;;;0.85;;
72603;SDS011;60645;56.968;24.196;2023-02-28T06:31:29;1.70;;;0.70;;
72603;SDS011;60645;56.968;24.196;2023-02-28T06:33:57;4.57;;;0.80;;
72603;SDS011;60645;56.968;24.196;2023-02-28T06:36:24;2.35;;;0.50;;
72603;SDS011;60645;56.968;24.196;2023-02-28T06:38:51;1.40;;;0.50;;
72603;SDS011;60645;56.968;24.196;2023-02-28T06:41:22;3.75;;;0.60;;
72603;SDS011;60645;56.968;24.196;2023-02-28T06:43:50;1.00;;;0.50;;
72603;SDS011;60645;56.968;24.196;2023-02-28T06:46:18;2.15;;;0.77;;
72603;SDS011;60645;56.968;24.196;2023-02-28T06:48:45;2.45;;;0.70;;
72603;SDS011;60645;56.968;24.196;2023-02-28T06:51:14;2.85;;;1.05;;
72603;SDS011;60645;56.968;24.196;2023-02-28T06:53:43;2.22;;;0.70;;
72603;SDS011;60645;56.968;24.196;2023-02-28T06:56:11;9.15;;;2.65;;
72603;SDS011;60645;56.968;24.196;2023-02-28T06:58:41;4.18;;;0.80;;
72603;SDS011;60645;56.968;24.196;2023-02-28T07:01:08;2.22;;;0.90;;
72603;SDS011;60645;56.968;24.196;2023-02-28T07:03:35;4.78;;;1.00;;
72603;SDS011;60645;56.968;24.196;2023-02-28T07:06:02;2.15;;;0.75;;
72603;SDS011;60645;56.968;24.196;2023-02-28T07:08:31;3.47;;;0.50;;
72603;SDS011;60645;56.968;24.196;2023-02-28T07:10:59;2.45;;;0.50;;
72603;SDS011;60645;56.968;24.196;2023-02-28T07:13:26;2.63;;;0.90;;
72603;SDS011;60645;56.968;24.196;2023-02-28T07:16:11;1.48;;;0.70;;
72603;SDS011;60645;56.968;24.196;2023-02-28T07:18:38;2.50;;;1.02;;
72603;SDS011;60645;56.968;24.196;2023-02-28T07:21:06;2.88;;;1.00;;
72603;SDS011;60645;56.968;24.196;2023-02-28T07:23:35;3.08;;;1.05;;
72603;SDS011;60645;56.968;24.196;2023-02-28T07:26:10;2.88;;;1.00;;
72603;SDS011;60645;56.968;24.196;2023-02-28T07:28:44;3.08;;;1.02;;
72603;SDS011;60645;56.968;24.196;2023-02-28T07:33:40;1.58;;;0.88;;
72603;SDS011;60645;56.968;24.196;2023-02-28T07:36:09;5.57;;;1.13;;
72603;SDS011;60645;56.968;24.196;2023-02-28T07:38:44;4.30;;;0.70;;
72603;SDS011;60645;56.968;24.196;2023-02-28T07:41:17;3.25;;;0.80;;
72603;SDS011;60645;56.968;24.196;2023-02-28T07:43:46;2.50;;;1.05;;
72603;SDS011;60645;56.968;24.196;2023-02-28T07:46:14;4.45;;;1.15;;
72603;SDS011;60645;56.968;24.196;2023-02-28T07:48:42;3.13;;;0.90;;
72603;SDS011;60645;56.968;24.196;2023-02-28T07:53:36;3.28;;;0.98;;
72603;SDS011;60645;56.968;24.196;2023-02-28T07:56:04;2.28;;;0.75;;
72603;SDS011;60645;56.968;24.196;2023-02-28T07:58:31;3.17;;;0.80;;
72603;SDS011;60645;56.968;24.196;2023-02-28T08:01:04;2.50;;;0.90;;
72603;SDS011;60645;56.968;24.196;2023-02-28T08:03:32;2.75;;;1.00;;
72603;SDS011;60645;56.968;24.196;2023-02-28T08:05:59;5.65;;;1.00;;
72603;SDS011;60645;56.968;24.196;2023-02-28T08:08:28;4.55;;;0.88;;
72603;SDS011;60645;56.968;24.196;2023-02-28T08:10:58;2.97;;;0.93;;
72603;SDS011;60645;56.968;24.196;2023-02-28T08:13:27;1.85;;;0.55;;
72603;SDS011;60645;56.968;24.196;2023-02-28T08:15:55;2.72;;;0.70;;
72603;SDS011;60645;56.968;24.196;2023-02-28T08:18:23;3.20;;;0.90;;
72603;SDS011;60645;56.968;24.196;2023-02-28T08:25:44;2.45;;;0.60;;
72603;SDS011;60645;56.968;24.196;2023-02-28T08:28:18;3.30;;;0.82;;
72603;SDS011;60645;56.968;24.196;2023-02-28T10:19:58;3.28;;;1.13;;
72603;SDS011;60645;56.968;24.196;2023-02-28T10:22:44;1.30;;;0.30;;
72603;SDS011;60645;56.968;24.196;2023-02-28T10:25:18;1.95;;;0.55;;
72603;SDS011;60645;56.968;24.196;2023-02-28T10:27:52;3.30;;;0.50;;
72603;SDS011;60645;56.968;24.196;2023-02-28T10:30:20;3.50;;;0.40;;
72603;SDS011;60645;56.968;24.196;2023-02-28T10:32:49;3.00;;;0.35;;
72603;SDS011;60645;56.968;24.196;2023-02-28T10:35:23;1.50;;;0.43;;
72603;SDS011;60645;56.968;24.196;2023-02-28T10:37:55;3.22;;;0.50;;
72603;SDS011;60645;56.968;24.196;2023-02-28T10:45:51;3.97;;;0.93;;
72603;SDS011;60645;56.968;24.196;2023-02-28T11:01:35;1.95;;;0.30;;
72603;SDS011;60645;56.968;24.196;2023-02-28T11:04:03;1.88;;;0.52;;
72603;SDS011;60645;56.968;24.196;2023-02-28T11:06:45;1.15;;;0.20;;
72603;SDS011;60645;56.968;24.196;2023-02-28T11:09:19;1.10;;;0.20;;
72603;SDS011;60645;56.968;24.196;2023-02-28T11:20:49;0.93;;;0.20;;
72603;SDS011;60645;56.968;24.196;2023-02-28T11:23:19;1.95;;;0.25;;
72603;SDS011;60645;56.968;24.196;2023-02-28T11:25:48;2.58;;;0.60;;
72603;SDS011;60645;56.968;24.196;2023-02-28T11:31:02;1.23;;;0.10;;
72603;SDS011;60645;56.968;24.196;2023-02-28T11:33:40;1.10;;;0.30;;
72603;SDS011;60645;56.968;24.196;2023-02-28T11:36:15;2.28;;;0.57;;
72603;SDS011;60645;56.968;24.196;2023-02-28T11:38:47;1.60;;;0.30;;
72603;SDS011;60645;56.968;24.196;2023-02-28T11:52:06;3.60;;;0.52;;
72603;SDS011;60645;56.968;24.196;2023-02-28T12:00:03;1.10;;;0.32;;
72603;SDS011;60645;56.968;24.196;2023-02-28T12:03:03;3.95;;;0.60;;
72603;SDS011;60645;56.968;24.196;2023-02-28T12:22:32;2.75;;;0.60;;
72603;SDS011;60645;56.968;24.196;2023-02-28T12:28:10;1.50;;;0.30;;
72603;SDS011;60645;56.968;24.196;2023-02-28T12:30:42;2.33;;;0.50;;
72603;SDS011;60645;56.968;24.196;2023-02-28T12:33:19;1.15;;;0.30;;
72603;SDS011;60645;56.968;24.196;2023-02-28T12:38:43;3.20;;;0.30;;
72603;SDS011;60645;56.968;24.196;2023-02-28T12:41:18;1.33;;;0.32;;
72603;SDS011;60645;56.968;24.196;2023-02-28T12:43:55;1.23;;;0.20;;
72603;SDS011;60645;56.968;24.196;2023-02-28T12:46:34;1.98;;;0.40;;
72603;SDS011;60645;56.968;24.196;2023-02-28T12:49:08;2.15;;;0.90;;
72603;SDS011;60645;56.968;24.196;2023-02-28T12:51:39;1.73;;;0.30;;
72603;SDS011;60645;56.968;24.196;2023-02-28T13:07:10;0.77;;;0.20;;
72603;SDS011;60645;56.968;24.196;2023-02-28T13:09:40;1.33;;;0.30;;
72603;SDS011;60645;56.968;24.196;2023-02-28T13:12:14;1.23;;;0.30;;
72603;SDS011;60645;56.968;24.196;2023-02-28T13:14:42;1.90;;;0.60;;
72603;SDS011;60645;56.968;24.196;2023-02-28T13:17:11;0.75;;;0.20;;
72603;SDS011;60645;56.968;24.196;2023-02-28T13:25:53;3.60;;;0.50;;
72603;SDS011;60645;56.968;24.196;2023-02-28T13:28:08;2.05;;;0.50;;
72603;SDS011;60645;56.968;24.196;2023-02-28T13:33:23;4.07;;;0.70;;
72603;SDS011;60645;56.968;24.196;2023-02-28T13:38:50;2.03;;;0.57;;
72603;SDS011;60645;56.968;24.196;2023-02-28T13:54:54;1.17;;;0.22;;
72603;SDS011;60645;56.968;24.196;2023-02-28T14:05:42;1.90;;;0.30;;
72603;SDS011;60645;56.968;24.196;2023-02-28T14:08:17;2.20;;;0.20;;
72603;SDS011;60645;56.968;24.196;2023-02-28T14:10:50;1.75;;;0.28;;
72603;SDS011;60645;56.968;24.196;2023-02-28T14:16:42;0.93;;;0.38;;
72603;SDS011;60645;56.968;24.196;2023-02-28T14:19:17;1.27;;;0.40;;
72603;SDS011;60645;56.968;24.196;2023-02-28T14:27:58;1.23;;;0.60;;
72603;SDS011;60645;56.968;24.196;2023-02-28T14:31:05;1.88;;;0.20;;
72603;SDS011;60645;56.968;24.196;2023-02-28T14:33:45;2.03;;;0.20;;
72603;SDS011;60645;56.968;24.196;2023-02-28T14:36:27;1.33;;;0.20;;
72603;SDS011;60645;56.968;24.196;2023-02-28T14:39:01;2.90;;;0.30;;
72603;SDS011;60645;56.968;24.196;2023-02-28T14:41:35;2.35;;;0.38;;
72603;SDS011;60645;56.968;24.196;2023-02-28T14:46:55;2.67;;;0.20;;
72603;SDS011;60645;56.968;24.196;2023-02-28T14:52:02;1.13;;;0.50;;
72603;SDS011;60645;56.968;24.196;2023-02-28T14:54:30;1.88;;;0.40;;
72603;SDS011;60645;56.968;24.196;2023-02-28T14:56:57;1.00;;;0.32;;
72603;SDS011;60645;56.968;24.196;2023-02-28T14:59:25;3.00;;;0.45;;
72603;SDS011;60645;56.968;24.196;2023-02-28T15:04:58;2.20;;;0.40;;
72603;SDS011;60645;56.968;24.196;2023-02-28T15:07:28;1.35;;;0.50;;
72603;SDS011;60645;56.968;24.196;2023-02-28T15:21:00;1.88;;;0.98;;
72603;SDS011;60645;56.968;24.196;2023-02-28T15:23:29;3.35;;;1.50;;
72603;SDS011;60645;56.968;24.196;2023-02-28T15:25:57;3.92;;;1.70;;
72603;SDS011;60645;56.968;24.196;2023-02-28T15:28:25;4.80;;;2.15;;
72603;SDS011;60645;56.968;24.196;2023-02-28T15:31:02;4.95;;;2.42;;
72603;SDS011;60645;56.968;24.196;2023-02-28T15:33:51;4.75;;;2.47;;
72603;SDS011;60645;56.968;24.196;2023-02-28T15:36:26;5.18;;;2.67;;
72603;SDS011;60645;56.968;24.196;2023-02-28T15:38:56;5.72;;;3.10;;
72603;SDS011;60645;56.968;24.196;2023-02-28T15:41:40;5.28;;;2.33;;
72603;SDS011;60645;56.968;24.196;2023-02-28T15:44:24;4.00;;;1.83;;
72603;SDS011;60645;56.968;24.196;2023-02-28T15:46:54;5.40;;;2.28;;
72603;SDS011;60645;56.968;24.196;2023-02-28T15:49:24;5.80;;;3.17;;
72603;SDS011;60645;56.968;24.196;2023-02-28T15:51:52;8.90;;;3.45;;
72603;SDS011;60645;56.968;24.196;2023-02-28T15:54:26;7.43;;;4.07;;
72603;SDS011;60645;56.968;24.196;2023-02-28T15:57:10;10.48;;;5.30;;
72603;SDS011;60645;56.968;24.196;2023-02-28T15:59:45;11.38;;;4.70;;
72603;SDS011;60645;56.968;24.196;2023-02-28T16:02:19;8.95;;;4.25;;
72603;SDS011;60645;56.968;24.196;2023-02-28T16:04:56;4.45;;;2.03;;
72603;SDS011;60645;56.968;24.196;2023-02-28T16:07:33;4.60;;;2.08;;
72603;SDS011;60645;56.968;24.196;2023-02-28T16:10:08;4.65;;;1.73;;
72603;SDS011;60645;56.968;24.196;2023-02-28T16:12:38;5.68;;;2.13;;
72603;SDS011;60645;56.968;24.196;2023-02-28T16:15:07;4.53;;;1.75;;
72603;SDS011;60645;56.968;24.196;2023-02-28T16:17:43;4.72;;;2.05;;
72603;SDS011;60645;56.968;24.196;2023-02-28T16:20:21;7.32;;;3.03;;
72603;SDS011;60645;56.968;24.196;2023-02-28T16:22:50;6.63;;;3.20;;
72603;SDS011;60645;56.968;24.196;2023-02-28T16:25:40;8.57;;;3.20;;
72603;SDS011;60645;56.968;24.196;2023-02-28T16:30:51;4.35;;;2.35;;
72603;SDS011;60645;56.968;24.196;2023-02-28T16:33:19;5.72;;;2.60;;
72603;SDS011;60645;56.968;24.196;2023-02-28T16:35:46;7.38;;;2.70;;
72603;SDS011;60645;56.968;24.196;2023-02-28T16:38:13;5.32;;;1.90;;
72603;SDS011;60645;56.968;24.196;2023-02-28T16:40:40;4.05;;;1.30;;
72603;SDS011;60645;56.968;24.196;2023-02-28T16:43:07;3.78;;;1.10;;
72603;SDS011;60645;56.968;24.196;2023-02-28T16:45:41;4.15;;;1.00;;
72603;SDS011;60645;56.968;24.196;2023-02-28T16:48:13;3.75;;;1.00;;
72603;SDS011;60645;56.968;24.196;2023-02-28T16:50:42;2.00;;;0.65;;
72603;SDS011;60645;56.968;24.196;2023-02-28T16:53:12;2.45;;;0.40;;
72603;SDS011;60645;56.968;24.196;2023-02-28T16:55:39;2.00;;;0.60;;
72603;SDS011;60645;56.968;24.196;2023-02-28T16:58:10;4.15;;;1.10;;
72603;SDS011;60645;56.968;24.196;2023-02-28T17:00:41;4.50;;;1.00;;
72603;SDS011;60645;56.968;24.196;2023-02-28T17:03:20;5.80;;;1.35;;
72603;SDS011;60645;56.968;24.196;2023-02-28T17:05:59;5.53;;;1.65;;
72603;SDS011;60645;56.968;24.196;2023-02-28T17:08:26;5.82;;;1.58;;
72603;SDS011;60645;56.968;24.196;2023-02-28T17:10:55;5.85;;;1.45;;
72603;SDS011;60645;56.968;24.196;2023-02-28T17:13:22;3.80;;;1.60;;
72603;SDS011;60645;56.968;24.196;2023-02-28T17:15:49;3.78;;;0.95;;
72603;SDS011;60645;56.968;24.196;2023-02-28T17:18:17;5.40;;;0.90;;
72603;SDS011;60645;56.968;24.196;2023-02-28T17:20:45;2.90;;;0.73;;
72603;SDS011;60645;56.968;24.196;2023-02-28T17:23:12;1.58;;;0.57;;
72603;SDS011;60645;56.968;24.196;2023-02-28T17:25:39;3.65;;;0.75;;
72603;SDS011;60645;56.968;24.196;2023-02-28T17:28:08;3.42;;;0.40;;
72603;SDS011;60645;56.968;24.196;2023-02-28T17:30:35;4.43;;;0.70;;
72603;SDS011;60645;56.968;24.196;2023-02-28T17:33:03;3.33;;;0.47;;
72603;SDS011;60645;56.968;24.196;2023-02-28T17:35:30;1.95;;;0.93;;
72603;SDS011;60645;56.968;24.196;2023-02-28T17:37:57;1.85;;;0.70;;
72603;SDS011;60645;56.968;24.196;2023-02-28T17:40:24;3.30;;;0.77;;
72603;SDS011;60645;56.968;24.196;2023-02-28T17:42:51;3.33;;;1.08;;
72603;SDS011;60645;56.968;24.196;2023-02-28T17:45:18;1.77;;;0.38;;
72603;SDS011;60645;56.968;24.196;2023-02-28T17:47:47;2.55;;;0.63;;
72603;SDS011;60645;56.968;24.196;2023-02-28T17:50:17;1.25;;;0.30;;
72603;SDS011;60645;56.968;24.196;2023-02-28T17:52:46;4.90;;;0.80;;
72603;SDS011;60645;56.968;24.196;2023-02-28T17:55:13;1.20;;;0.30;;
72603;SDS011;60645;56.968;24.196;2023-02-28T17:57:40;2.15;;;0.70;;
72603;SDS011;60645;56.968;24.196;2023-02-28T18:00:10;2.60;;;0.50;;
72603;SDS011;60645;56.968;24.196;2023-02-28T18:02:44;1.60;;;0.70;;
72603;SDS011;60645;56.968;24.196;2023-02-28T18:05:11;2.80;;;0.80;;
72603;SDS011;60645;56.968;24.196;2023-02-28T18:07:38;2.40;;;0.40;;
72603;SDS011;60645;56.968;24.196;2023-02-28T18:10:07;3.95;;;1.00;;
72603;SDS011;60645;56.968;24.196;2023-02-28T18:12:46;2.95;;;0.70;;
72603;SDS011;60645;56.968;24.196;2023-02-28T18:15:14;2.35;;;0.77;;
72603;SDS011;60645;56.968;24.196;2023-02-28T18:17:42;6.90;;;2.17;;
72603;SDS011;60645;56.968;24.196;2023-02-28T18:20:10;2.25;;;0.85;;
72603;SDS011;60645;56.968;24.196;2023-02-28T18:22:38;2.97;;;0.88;;
72603;SDS011;60645;56.968;24.196;2023-02-28T18:25:07;4.80;;;0.65;;
72603;SDS011;60645;56.968;24.196;2023-02-28T18:27:39;4.60;;;0.90;;
72603;SDS011;60645;56.968;24.196;2023-02-28T18:30:20;2.60;;;0.70;;
72603;SDS011;60645;56.968;24.196;2023-02-28T18:32:47;3.58;;;0.88;;
72603;SDS011;60645;56.968;24.196;2023-02-28T18:35:14;2.33;;;0.60;;
72603;SDS011;60645;56.968;24.196;2023-02-28T18:37:42;1.35;;;0.40;;
72603;SDS011;60645;56.968;24.196;2023-02-28T18:40:09;3.50;;;0.20;;
72603;SDS011;60645;56.968;24.196;2023-02-28T18:42:36;1.27;;;0.32;;
72603;SDS011;60645;56.968;24.196;2023-02-28T18:45:04;1.40;;;0.60;;
72603;SDS011;60645;56.968;24.196;2023-02-28T18:47:33;2.88;;;0.45;;
72603;SDS011;60645;56.968;24.196;2023-02-28T18:50:00;0.57;;;0.20;;
72603;SDS011;60645;56.968;24.196;2023-02-28T18:52:27;0.80;;;0.17;;
72603;SDS011;60645;56.968;24.196;2023-02-28T18:54:54;1.63;;;0.38;;
72603;SDS011;60645;56.968;24.196;2023-02-28T18:57:21;3.70;;;0.60;;
72603;SDS011;60645;56.968;24.196;2023-02-28T18:59:48;1.92;;;0.45;;
72603;SDS011;60645;56.968;24.196;2023-02-28T19:02:16;3.75;;;1.05;;
72603;SDS011;60645;56.968;24.196;2023-02-28T19:04:44;2.92;;;0.50;;
72603;SDS011;60645;56.968;24.196;2023-02-28T19:07:11;0.90;;;0.30;;
72603;SDS011;60645;56.968;24.196;2023-02-28T19:09:38;3.10;;;0.45;;
72603;SDS011;60645;56.968;24.196;2023-02-28T19:12:05;6.50;;;1.02;;
72603;SDS011;60645;56.968;24.196;2023-02-28T19:14:35;4.45;;;0.68;;
72603;SDS011;60645;56.968;24.196;2023-02-28T19:17:02;7.50;;;1.08;;
72603;SDS011;60645;56.968;24.196;2023-02-28T19:19:29;2.92;;;0.63;;
72603;SDS011;60645;56.968;24.196;2023-02-28T19:21:56;6.28;;;1.65;;
72603;SDS011;60645;56.968;24.196;2023-02-28T19:24:23;3.28;;;1.00;;
72603;SDS011;60645;56.968;24.196;2023-02-28T19:26:50;3.25;;;0.70;;
72603;SDS011;60645;56.968;24.196;2023-02-28T19:29:17;3.90;;;0.90;;
72603;SDS011;60645;56.968;24.196;2023-02-28T19:31:44;4.03;;;0.75;;
72603;SDS011;60645;56.968;24.196;2023-02-28T19:34:11;2.03;;;0.30;;
72603;SDS011;60645;56.968;24.196;2023-02-28T19:36:39;3.83;;;0.85;;
72603;SDS011;60645;56.968;24.196;2023-02-28T19:39:07;4.47;;;1.02;;
72603;SDS011;60645;56.968;24.196;2023-02-28T19:41:34;3.75;;;0.93;;
72603;SDS011;60645;56.968;24.196;2023-02-28T19:44:01;5.90;;;0.65;;
72603;SDS011;60645;56.968;24.196;2023-02-28T19:46:28;2.20;;;0.43;;
72603;SDS011;60645;56.968;24.196;2023-02-28T19:48:55;0.88;;;0.30;;
72603;SDS011;60645;56.968;24.196;2023-02-28T19:51:22;6.82;;;0.80;;
72603;SDS011;60645;56.968;24.196;2023-02-28T19:53:49;3.65;;;0.40;;